Terminal Aerodrome Forecast
Issued by NWS Sioux Falls, SD

Home | Current Version | Previous Version | Text Only | Print | Product List | Glossary On
Versions: 1 2 3 4 5 6 7 8 9 10 11 12 13 14 15 16 17 18 19 20 21 22 23 24
343
FTUS43 KFSD 301720
TAFSUX
TAF
KSUX 301720Z 3018/0118 05018G26KT 4SM RA OVC008
     FM010800 02015G22KT 6SM RA OVC008
     FM011100 02013G19KT P6SM VCSH OVC010
     FM011400 02014G21KT P6SM OVC020=

USA.gov is the U.S. government's official web portal to all federal, state and local government web resources and services.